Weather observations for the past three days for
Truckee-Tahoe
| Date | Time (pdt) | Wind (kph) | Vis. (km) | Weather | Sky Cond. | Temperature (ºC) | Relative Humidity | Wind Chill (°C) | Heat Index (°C) | Pressure | Precipitation (cm) | ||||||
|---|---|---|---|---|---|---|---|---|---|---|---|---|---|---|---|---|---|
| Air | Dwpt | 6 hour | altimeter (cm) | sea level (mb) | 1 hr | 3 hr | 6 hr | ||||||||||
| Max. | Min. | ||||||||||||||||
| 02 | 12:50 | S 22 | 16.09 | Overcast | SCT070 BKN080 OVC120 | 18 | 0 | 30% | 76.35 | 0.0 | |||||||
| 02 | 11:47 | SE 17 | 16.09 | Overcast | SCT150 OVC180 | 17 | 1 | 34% | 76.35 | 0.0 | |||||||
| 02 | 10:49 | SE 17 | 16.09 | Overcast | SCT150 OVC180 | 17 | 1 | 34% | 76.38 | 0.0 | |||||||
| 02 | 09:47 | Calm | 16.09 | Overcast | SCT150 OVC180 | 12 | 4 | 58% | 76.4 | 0.0 | |||||||
| 02 | 08:49 | Calm | 16.09 | Mostly Cloudy | SCT150 BKN200 | 8 | 4 | 76% | 76.43 | 0.0 | |||||||
| 02 | 07:50 | Calm | 16.09 | Mostly Cloudy | SCT120 BKN210 | 4 | 3 | 93% | 76.43 | 0.0 | |||||||
| 02 | 06:48 | Calm | 16.09 | Mostly Cloudy | SCT BKN210 | 2 | 2 | 100% | 76.4 | 0.0 | |||||||
| 02 | 06:35 | Calm | 4.83 | Fog/Mist | SCT002 | 1 | 1 | 100% | 76.4 | 0.0 | |||||||
| 02 | 05:55 | Calm | 16.09 | Fair | CLR | 0 | 0 | 100% | 76.38 | 0.0 | |||||||
| 02 | 05:35 | Calm | 16.09 | Fair | CLR | 1 | 0 | 93% | 76.38 | 0.0 | |||||||
| 02 | 05:15 | Calm | 16.09 | Fair | CLR | 2 | 1 | 93% | 76.38 | 0.0 | |||||||
| 02 | 04:55 | Calm | 16.09 | Fair | CLR | 2 | 2 | 100% | 76.38 | 0.0 | |||||||
| 02 | 04:35 | Calm | 8.05 | Fog/Mist | CLR | 1 | 1 | 100% | 76.38 | 0.0 | |||||||
| 02 | 04:15 | Calm | 16.09 | Fair | CLR | 2 | 2 | 100% | 76.4 | 0.0 | |||||||
| 02 | 03:55 | Calm | 11.27 | Fair | CLR | 3 | 2 | 93% | 76.4 | 0.0 | |||||||
| 02 | 03:35 | Calm | 16.09 | Fair | CLR | 2 | 2 | 100% | 76.4 | 0.0 | |||||||
| 02 | 03:15 | Calm | 16.09 | Fair | CLR | 3 | 2 | 93% | 76.38 | 0.0 | |||||||
| 02 | 02:55 | Calm | 16.09 | Fair | CLR | 2 | 1 | 93% | 76.38 | 0.0 | |||||||
| 02 | 02:35 | Calm | 16.09 | Fair | CLR | 4 | 3 | 93% | 76.4 | 0.0 | |||||||
| 02 | 02:15 | Calm | 16.09 | Fair | CLR | 3 | 2 | 93% | 76.4 | 0.0 | |||||||
| 02 | 01:55 | Calm | 16.09 | Fair | CLR | 3 | 2 | 93% | 76.43 | 0.0 | |||||||
| 02 | 01:35 | Calm | 16.09 | Fair | CLR | 4 | 3 | 93% | 76.43 | 0.0 | |||||||
| 02 | 01:15 | Calm | 16.09 | Fair | CLR | 4 | 2 | 87% | 76.45 | 0.0 | |||||||
| 02 | 00:55 | Calm | 16.09 | Fair | CLR | 5 | 3 | 87% | 76.45 | 0.0 | |||||||
| 02 | 00:35 | Calm | 16.09 | Fair | CLR | 5 | 2 | 81% | 76.45 | 0.0 | |||||||
| 02 | 00:15 | Calm | 16.09 | Fair | CLR | 5 | 2 | 81% | 76.48 | 0.0 | |||||||
| 01 | 23:55 | Calm | 16.09 | Fair | CLR | 6 | 2 | 76% | 76.48 | 0.0 | |||||||
| 01 | 23:35 | Calm | 16.09 | Fair | CLR | 6 | 3 | 81% | 76.48 | 0.0 | |||||||
| 01 | 23:15 | Calm | 16.09 | Fair | CLR | 6 | 2 | 76% | 76.45 | 0.0 | |||||||
| 01 | 22:55 | SE 9 | 16.09 | Fair | CLR | 6 | 1 | 71% | 4 | 76.48 | 0.0 | ||||||
| 01 | 22:35 | E 6 | 16.09 | Fair | CLR | 8 | 2 | 66% | 76.45 | 0.0 | |||||||
| 01 | 22:15 | Calm | 16.09 | Fair | CLR | 8 | 1 | 62% | 76.48 | 0.0 | |||||||
| 01 | 21:55 | Calm | 16.09 | Fair | CLR | 8 | 1 | 62% | 76.45 | 0.0 | |||||||
| 01 | 21:35 | SE 7 | 16.09 | Fair | CLR | 8 | 1 | 62% | 7 | 76.45 | 0.0 | ||||||
| 01 | 21:15 | SE 11 | 16.09 | Fair | CLR | 9 | 2 | 62% | 8 | 76.43 | 0.0 | ||||||
| 01 | 20:55 | SE 7 | 16.09 | Fair | CLR | 10 | 2 | 58% | 9 | 76.43 | 0.0 | ||||||
| 01 | 20:35 | Calm | 16.09 | Fair | CLR | 11 | 3 | 58% | 76.4 | 0.0 | |||||||
| 01 | 20:15 | W 9 | 16.09 | Fair | CLR | 13 | 3 | 51% | 76.38 | 0.0 | |||||||
| 01 | 19:47 | Vrbl 6 | 16.09 | Mostly Cloudy | BKN120 BKN220 | 14 | 3 | 48% | 76.38 | 0.0 | |||||||
| 01 | 18:47 | SW 15 | 16.09 | Mostly Cloudy | FEW090 BKN180 | 17 | 3 | 39% | 76.38 | 0.0 | |||||||
| 01 | 17:47 | Vrbl 7 | 16.09 | Mostly Cloudy | FEW040 BKN180 | 18 | -10 | 14% | 76.38 | 0.0 | |||||||
| 01 | 16:47 | Vrbl 7 | 16.09 | Mostly Cloudy | FEW040 BKN220 | 20 | -9 | 13% | 76.38 | 0.0 | |||||||
| 01 | 15:49 | S 7 | 16.09 | Mostly Cloudy | BKN220 | 19 | -9 | 14% | 76.43 | 0.0 | |||||||
| 01 | 14:50 | SE 19 G 37 | 16.09 | Mostly Cloudy | BKN220 | 19 | -6 | 18% | 76.5 | 0.0 | |||||||
| 01 | 13:48 | S 17 | 16.09 | Mostly Cloudy | BKN220 | 18 | -6 | 19% | 76.53 | 0.0 | |||||||
| 01 | 12:48 | S 28 | 16.09 | Fair | CLR | 18 | -6 | 19% | 76.56 | 0.0 | |||||||
| 01 | 11:48 | S 24 G 43 | 16.09 | Fair | CLR | 17 | -4 | 24% | 76.63 | 0.0 | |||||||
| 01 | 10:48 | NW 6 | 16.09 | Fair | CLR | 15 | -3 | 29% | 76.63 | 0.0 | |||||||
| 01 | 09:55 | NW 7 | 16.09 | Fair | CLR | 12 | 0 | 44% | 76.63 | 0.0 | |||||||
| 01 | 08:48 | Calm | 16.09 | Fair | CLR | 7 | 0 | 61% | 76.68 | 0.0 | |||||||
| 01 | 07:48 | Calm | 16.09 | Fair | CLR | 2 | 0 | 87% | 76.68 | 0.0 | |||||||
| 01 | 06:55 | Calm | 16.09 | Fair | CLR | -1 | -2 | 93% | 76.66 | 0.0 | |||||||
| 01 | 06:35 | Calm | 16.09 | Fair | CLR | -1 | -1 | 100% | 76.63 | 0.0 | |||||||
| 01 | 06:15 | Calm | 16.09 | Fair | CLR | -2 | -2 | 100% | 76.61 | 0.0 | |||||||
| 01 | 05:55 | Calm | 16.09 | Fair | CLR | -3 | -4 | 93% | 76.58 | 0.0 | |||||||
| 01 | 05:35 | Calm | 16.09 | Fair | CLR | -1 | -1 | 100% | 76.58 | 0.0 | |||||||
| 01 | 05:15 | Calm | 16.09 | Fair | CLR | -1 | -1 | 100% | 76.58 | 0.0 | |||||||
| 01 | 04:55 | Calm | 16.09 | Fair | CLR | -1 | -2 | 93% | 76.58 | 0.0 | |||||||
| 01 | 04:35 | E 7 | 2.01 | Fog/Mist | VV007 | -1 | -1 | 100% | -3 | 76.58 | 0.0 | ||||||
| 01 | 04:15 | Calm | 2.82 | Fog/Mist | VV007 | 0 | 0 | 100% | 76.61 | 0.0 | |||||||
| 01 | 03:55 | Calm | 1.61 | Fog/Mist | VV007 | 0 | 0 | 100% | 76.58 | 0.0 | |||||||
| 01 | 03:35 | Calm | 0.80 | Fog | VV005 | 0 | 0 | 100% | 76.58 | 0.0 | |||||||
| 01 | 03:15 | Calm | 4.02 | Fog/Mist | CLR | 0 | 0 | 100% | 76.56 | 0.0 | |||||||
| 01 | 02:55 | Calm | 16.09 | Fair | CLR | 0 | 0 | 100% | 76.56 | 0.0 | |||||||
| 01 | 02:35 | Calm | 16.09 | Fair | CLR | 1 | 0 | 93% | 76.56 | 0.0 | |||||||
| 01 | 02:15 | Calm | 16.09 | Fair | CLR | 1 | 0 | 93% | 76.56 | 0.0 | |||||||
| 01 | 01:55 | Calm | 16.09 | Fair | CLR | 0 | 0 | 100% | 76.56 | 0.0 | |||||||
| 01 | 01:35 | Calm | 16.09 | Fair | CLR | 2 | 0 | 87% | 76.56 | 0.0 | |||||||
| 01 | 01:15 | Calm | 16.09 | Fair | CLR | 1 | 0 | 93% | 76.56 | 0.0 | |||||||
| 01 | 00:55 | Calm | 16.09 | Fair | CLR | 2 | 0 | 87% | 76.56 | 0.0 | |||||||
| 01 | 00:35 | Calm | 16.09 | Fair | CLR | 2 | 1 | 93% | 76.58 | 0.0 | |||||||
| 01 | 00:15 | Calm | 16.09 | Fair | CLR | 3 | 0 | 81% | 76.56 | 0.0 | |||||||
| 30 | 23:55 | Calm | 16.09 | Fair | CLR | 2 | 0 | 87% | 76.56 | 0.0 | |||||||
| 30 | 23:35 | Calm | 16.09 | Fair | CLR | 3 | 2 | 93% | 76.53 | 0.0 | |||||||
| 30 | 23:15 | S 6 | 16.09 | Fair | CLR | 4 | 0 | 75% | 76.53 | 0.0 | |||||||
| 30 | 22:55 | SE 6 | 16.09 | Fair | CLR | 5 | 0 | 70% | 76.53 | 0.0 | |||||||
| 30 | 22:35 | Calm | 16.09 | Fair | CLR | 5 | 1 | 76% | 76.53 | 0.0 | |||||||
| 30 | 21:55 | S 6 | 16.09 | Fair | CLR | 5 | 0 | 70% | 76.53 | 0.0 | |||||||
| 30 | 21:35 | Calm | 16.09 | Fair | CLR | 6 | 0 | 66% | 76.48 | 0.0 | |||||||
| 30 | 21:15 | SE 7 | 16.09 | Partly Cloudy | SCT095 | 7 | 0 | 61% | 6 | 76.48 | 0.0 | ||||||
| 30 | 20:55 | SE 6 | 16.09 | Mostly Cloudy | BKN095 | 8 | 1 | 62% | 76.45 | 0.0 | |||||||
| 30 | 20:35 | SE 7 | 16.09 | Overcast | OVC095 | 10 | 0 | 50% | 9 | 76.45 | 0.0 | ||||||
| 30 | 20:15 | SE 6 | 16.09 | Mostly Cloudy | BKN095 | 11 | 0 | 47% | 76.43 | 0.0 | |||||||
| 30 | 18:46 | S 6 | 16.09 | Mostly Cloudy | BKN095 | 15 | -2 | 31% | 76.38 | 0.0 | |||||||
| 30 | 17:50 | SE 9 | 16.09 | Mostly Cloudy | BKN095 | 16 | -4 | 25% | 76.38 | 0.0 | |||||||
| 30 | 16:48 | N 7 | 16.09 | Mostly Cloudy | BKN085 | 18 | -4 | 22% | 76.38 | 0.0 | |||||||
| 30 | 15:47 | NW 13 | 16.09 | Mostly Cloudy | BKN085 | 18 | -3 | 24% | 76.38 | 0.0 | |||||||
| 30 | 14:45 | S 24 | 16.09 | Mostly Cloudy | BKN085 | 18 | -3 | 24% | 76.45 | 0.0 | |||||||
| 30 | 13:49 | SE 7 | 16.09 | Mostly Cloudy | SCT070 BKN220 | 17 | -4 | 24% | 76.45 | 0.0 | |||||||
| 30 | 12:50 | S 15 G 33 | 16.09 | Partly Cloudy | SCT070 | 17 | -4 | 24% | 76.48 | 0.0 | |||||||
| 30 | 11:49 | Vrbl 6 | 16.09 | Partly Cloudy | SCT070 | 16 | -2 | 29% | 76.53 | 0.0 | |||||||
| 30 | 10:50 | N 13 | 16.09 | A Few Clouds | FEW070 | 14 | -1 | 36% | 76.53 | 0.0 | |||||||
| 30 | 09:49 | Calm | 16.09 | A Few Clouds | FEW085 | 8 | 4 | 76% | 76.58 | 0.0 | |||||||
| 30 | 08:50 | Calm | 4.83 | Fog/Mist | SCT002 | 3 | 3 | 100% | 76.61 | 0.0 | |||||||
| 30 | 07:50 | Calm | 0.21 | Fog | OVC002 | 0 | 0 | 100% | 76.63 | 0.0 | |||||||
| 30 | 06:50 | Calm | 0.21 | Freezing Fog | OVC002 | -1 | -1 | 100% | 76.61 | 0.0 | |||||||
| 30 | 06:35 | Calm | 0.24 | Fog | OVC002 | 0 | 0 | 100% | 76.61 | 0.0 | |||||||
| 30 | 06:15 | Calm | 0.24 | Freezing Fog | OVC002 | 0 | 0 | 100% | 76.58 | 0.0 | |||||||
| 30 | 05:55 | Calm | 0.40 | Freezing Fog | OVC002 | 0 | 0 | 100% | 76.58 | 0.0 | |||||||
| 30 | 05:35 | Calm | 0.40 | Freezing Fog | OVC002 | 0 | 0 | 100% | 76.58 | 0.0 | |||||||
| 30 | 05:15 | Calm | 0.40 | Freezing Fog | OVC002 | 0 | 0 | 100% | 76.58 | 0.0 | |||||||
| 30 | 04:55 | Calm | 0.80 | Freezing Fog | OVC002 | 0 | 0 | 100% | 76.58 | 0.0 | |||||||
| 30 | 04:35 | Calm | 0.40 | Freezing Fog | OVC002 | 0 | 0 | 100% | 76.58 | 0.0 | |||||||
| 30 | 04:15 | Calm | 0.40 | Freezing Fog | OVC002 | 0 | 0 | 100% | 76.58 | 0.0 | |||||||
| 30 | 03:55 | Calm | 0.40 | Freezing Fog | OVC002 | 0 | 0 | 100% | 76.61 | 0.0 | |||||||
| 30 | 03:35 | Calm | 4.83 | Fog/Mist | SCT002 | 1 | 1 | 100% | 76.58 | 0.0 | |||||||
| 30 | 03:15 | Calm | 0.80 | Fog | OVC002 | 0 | 0 | 100% | 76.58 | 0.0 | |||||||
| 30 | 02:55 | Calm | 0.40 | Fog | OVC002 | 0 | 0 | 100% | 76.58 | 0.0 | |||||||
| 30 | 02:35 | Calm | 0.40 | Fog | OVC002 | 0 | 0 | 100% | 76.58 | 0.0 | |||||||
| 30 | 02:15 | Calm | 2.01 | Fog/Mist | SCT002 | 1 | 1 | 100% | 76.61 | 0.0 | |||||||
| 30 | 01:55 | Calm | 2.01 | Fog/Mist | SCT002 | 1 | 1 | 100% | 76.61 | 0.0 | |||||||
| 30 | 01:35 | Calm | 6.44 | Fog/Mist | CLR | 1 | 1 | 100% | 76.61 | 0.0 | |||||||
| 30 | 01:15 | Calm | 16.09 | Fair | CLR | 1 | 1 | 100% | 76.61 | 0.0 | |||||||
| 30 | 00:55 | Calm | 16.09 | Fair | CLR | 3 | 2 | 93% | 76.61 | 0.0 | |||||||
| 30 | 00:35 | Calm | 16.09 | Fair | CLR | 3 | 2 | 93% | 76.61 | 0.0 | |||||||
| 30 | 00:15 | Calm | 16.09 | Fair | CLR | 3 | 3 | 100% | 76.61 | 0.0 | |||||||
| 29 | 23:55 | Calm | 16.09 | Fair | CLR | 3 | 2 | 93% | 76.58 | 0.0 | |||||||
| 29 | 23:35 | Calm | 16.09 | Fair | CLR | 4 | 3 | 93% | 76.58 | 0.0 | |||||||
| 29 | 23:15 | Calm | 16.09 | Fair | CLR | 4 | 2 | 87% | 76.56 | 0.0 | |||||||
| 29 | 22:55 | Calm | 16.09 | Fair | CLR | 5 | 3 | 87% | 76.56 | 0.0 | |||||||
| 29 | 22:35 | Calm | 16.09 | Fair | CLR | 5 | 2 | 81% | 76.56 | 0.0 | |||||||
| 29 | 22:15 | S 7 | 16.09 | Fair | CLR | 6 | 3 | 81% | 5 | 76.56 | 0.0 | ||||||
| 29 | 21:55 | Calm | 16.09 | Fair | CLR | 6 | 3 | 81% | 76.58 | 0.0 | |||||||
| 29 | 21:35 | SE 7 | 16.09 | Fair | CLR | 6 | 3 | 81% | 5 | 76.56 | 0.0 | ||||||
| 29 | 21:15 | Calm | 16.09 | Fair | CLR | 8 | 3 | 71% | 76.56 | 0.0 | |||||||
| 29 | 20:55 | Calm | 16.09 | Fair | CLR | 10 | 4 | 67% | 76.53 | 0.0 | |||||||
| 29 | 20:35 | Calm | 16.09 | Partly Cloudy | SCT049 SCT065 SCT080 | 11 | 5 | 67% | 76.53 | 0.0 | |||||||
| 29 | 20:15 | SW 6 | 16.09 | Overcast | BKN049 OVC065 | 11 | 4 | 62% | 76.53 | 0.0 | |||||||
| 29 | 18:48 | W 15 | 16.09 | Mostly Cloudy | BKN060 BKN080 | 15 | 3 | 45% | 76.45 | 0.0 | |||||||
| 29 | 17:48 | W 22 | 16.09 | Mostly Cloudy | BKN090 | 14 | 3 | 48% | 76.45 | 0.0 | |||||||
| 29 | 16:47 | W 17 | 16.09 | Mostly Cloudy | BKN080 | 17 | 0 | 32% | 76.43 | 0.0 | |||||||
| 29 | 15:48 | Calm | 16.09 | Mostly Cloudy | BKN085 | 17 | -4 | 24% | 76.45 | 0.0 | |||||||
| 29 | 14:47 | Vrbl 9 | 16.09 | Partly Cloudy | SCT085 | 17 | -4 | 24% | 76.48 | 0.0 | |||||||
| 29 | 13:50 | Vrbl 6 | 16.09 | Partly Cloudy | SCT060 | 16 | -3 | 27% | 76.53 | 0.0 | |||||||
| Date | Time (pdt) | Wind (kph) | Vis. (km) | Weather | Sky Cond. | Air | Dwpt | Max. | Min. | Relative Humidity | Wind Chill (°C) | Heat Index (°C) | altimeter (cm) | sea level (mb) | 1 hr | 3 hr | 6 hr |
| 6 hour | |||||||||||||||||
| Temperature (ºC) | Pressure | Precipitation (cm) | |||||||||||||||